Pagrindinis puslapis
METAR-TAF:

METAR-TAF

Oro uostai :

Katovicai, Lenkija

platuma: 50-28-27N, ilguma: 019-04-48E, Aukštis: 284 m

Dabartinis oras

Ataskaita buvo paskelbta 32 minutes, ne 01:30 UTC
Vėjas 2 kt iš Šiaurės/Šiaurės Rytų
Temperatūra 8°C
Drėgmė 100%
Slėgis 1011 hPa
Matomumas: 0700 m
Rūkas lopais, rūkana,

METAR: EPKT 200130Z 03002KT 1000 0700NW R26/P2000N BCFG BR NSC 08/08 Q1011

Laikas: 04:02 (02:02 UTC)

Prognozė

Ataskaita buvo paskelbta 2 valandos ir 32 minutes, ne 23:30 UTC
Prognozė galioja nuo 20 metu 00 UTC su 20 metu 24 UTC
Vėjas 2 kt iš Pietryčių
Matomumas: 2000 m
rūkana
Laikinai
nuo 20 metu 00 UTC su 20 metu 04 UTC
Matomumas: 0300 m
rūkas
Tapsmas
nuo 20 metu 04 UTC su 20 metu 07 UTC
Matomumas 10 km arba daugiau
nėra debesų žemiau 1500 m ir nėra kamuolinių lietaus debesų
Laikinai
nuo 20 metu 08 UTC su 20 metu 18 UTC
Su prošvaistėmis ne aukštis 4000 ft, Liūtiniai kamuoliniai debesys.
lietus,

TAF: EPKT 192330Z 2000/2024 14002KT 2000 BR NSC TEMPO 2000/2004 0300 FG BECMG 2004/2007 CAVOK TEMPO 2008/2018 -SHRA BKN040CB

Orai ataskaitas ir orų prognozės (METAR, TAF).

turimą stotys yra geltonos ir raudonos taškus žemėlapyje.

Perkelti pele per norėdami pamatyti stoties vardą.

Tada spustelėkite, norėdami matyti oro stebėjimo ir prognozės.

Norėdami pakeisti žemėlapį: spustelėkite ant žalios mygtukų su juodo kryžiaus žemyn,; žalią mygtuką su brūkšneliu, jei norite nutolinti; arba žalių rodyklių gretimoms žemėlapius.


METAR-TAF: